sensor_id;sensor_type;location;lat;lon;timestamp;pressure;altitude;pressure_sealevel;temperature;humidity
9141;BME280;46330;50.822;7.126;2023-06-26T00:01:07;100692.03;;;22.62;62.57
9141;BME280;46330;50.822;7.126;2023-06-26T00:03:35;100691.88;;;22.65;62.32
9141;BME280;46330;50.822;7.126;2023-06-26T00:06:04;100688.03;;;22.69;62.37
9141;BME280;46330;50.822;7.126;2023-06-26T00:08:33;100681.84;;;22.69;62.11
9141;BME280;46330;50.822;7.126;2023-06-26T00:11:01;100689.59;;;22.59;62.53
9141;BME280;46330;50.822;7.126;2023-06-26T00:13:29;100688.13;;;22.68;62.97
9141;BME280;46330;50.822;7.126;2023-06-26T00:15:57;100682.91;;;22.66;63.61
9141;BME280;46330;50.822;7.126;2023-06-26T00:18:29;100680.25;;;22.66;64.52
9141;BME280;46330;50.822;7.126;2023-06-26T00:20:57;100679.66;;;22.61;63.98
9141;BME280;46330;50.822;7.126;2023-06-26T00:23:25;100681.78;;;22.56;64.76
9141;BME280;46330;50.822;7.126;2023-06-26T00:25:55;100677.38;;;22.42;64.83
9141;BME280;46330;50.822;7.126;2023-06-26T00:28:23;100679.53;;;22.37;64.44
9141;BME280;46330;50.822;7.126;2023-06-26T00:30:51;100684.28;;;22.32;64.63
9141;BME280;46330;50.822;7.126;2023-06-26T00:33:20;100681.00;;;22.29;65.03
9141;BME280;46330;50.822;7.126;2023-06-26T00:35:50;100678.75;;;22.23;65.58
9141;BME280;46330;50.822;7.126;2023-06-26T00:38:18;100673.63;;;22.20;64.89
9141;BME280;46330;50.822;7.126;2023-06-26T00:40:46;100673.63;;;22.20;65.27
9141;BME280;46330;50.822;7.126;2023-06-26T00:43:15;100680.84;;;22.18;65.56
9141;BME280;46330;50.822;7.126;2023-06-26T00:45:43;100674.41;;;22.08;64.28
9141;BME280;46330;50.822;7.126;2023-06-26T00:48:12;100677.94;;;22.08;65.31
9141;BME280;46330;50.822;7.126;2023-06-26T00:50:41;100673.00;;;22.02;65.80
9141;BME280;46330;50.822;7.126;2023-06-26T00:53:09;100676.78;;;21.85;67.78
9141;BME280;46330;50.822;7.126;2023-06-26T00:55:38;100672.09;;;21.89;67.94
9141;BME280;46330;50.822;7.126;2023-06-26T00:58:08;100675.78;;;21.86;66.87
9141;BME280;46330;50.822;7.126;2023-06-26T01:00:38;100671.47;;;21.71;67.27
9141;BME280;46330;50.822;7.126;2023-06-26T01:03:06;100663.22;;;21.62;67.68
9141;BME280;46330;50.822;7.126;2023-06-26T01:05:35;100662.69;;;21.42;68.77
9141;BME280;46330;50.822;7.126;2023-06-26T01:08:03;100658.88;;;21.47;68.36
9141;BME280;46330;50.822;7.126;2023-06-26T01:10:31;100660.88;;;21.43;68.30
9141;BME280;46330;50.822;7.126;2023-06-26T01:12:59;100657.75;;;21.51;67.81
9141;BME280;46330;50.822;7.126;2023-06-26T01:15:28;100652.31;;;21.52;68.86
9141;BME280;46330;50.822;7.126;2023-06-26T01:17:58;100655.28;;;21.48;68.62
9141;BME280;46330;50.822;7.126;2023-06-26T01:20:31;100649.38;;;21.42;68.98
9141;BME280;46330;50.822;7.126;2023-06-26T01:23:05;100648.34;;;21.45;69.38
9141;BME280;46330;50.822;7.126;2023-06-26T01:25:43;100651.88;;;21.31;68.98
9141;BME280;46330;50.822;7.126;2023-06-26T01:28:16;100648.91;;;21.36;69.03
9141;BME280;46330;50.822;7.126;2023-06-26T01:30:45;100637.44;;;21.35;69.44
9141;BME280;46330;50.822;7.126;2023-06-26T01:33:14;100644.75;;;21.32;70.31
9141;BME280;46330;50.822;7.126;2023-06-26T01:35:43;100644.84;;;21.30;70.08
9141;BME280;46330;50.822;7.126;2023-06-26T01:38:12;100636.00;;;21.30;70.91
9141;BME280;46330;50.822;7.126;2023-06-26T01:40:41;100633.84;;;21.22;70.54
9141;BME280;46330;50.822;7.126;2023-06-26T01:43:18;100633.25;;;21.17;71.80
9141;BME280;46330;50.822;7.126;2023-06-26T01:45:50;100635.97;;;21.02;71.17
9141;BME280;46330;50.822;7.126;2023-06-26T01:48:46;100636.84;;;21.02;70.94
9141;BME280;46330;50.822;7.126;2023-06-26T01:51:18;100630.59;;;21.03;70.93
9141;BME280;46330;50.822;7.126;2023-06-26T01:53:53;100629.72;;;21.03;72.37
9141;BME280;46330;50.822;7.126;2023-06-26T01:56:23;100633.06;;;20.92;72.04
9141;BME280;46330;50.822;7.126;2023-06-26T01:58:54;100631.44;;;20.89;72.95
9141;BME280;46330;50.822;7.126;2023-06-26T02:01:22;100633.53;;;20.84;71.66
9141;BME280;46330;50.822;7.126;2023-06-26T02:03:50;100628.59;;;20.78;72.12
9141;BME280;46330;50.822;7.126;2023-06-26T02:06:18;100629.44;;;20.79;72.18
9141;BME280;46330;50.822;7.126;2023-06-26T02:08:46;100638.47;;;20.76;72.16
9141;BME280;46330;50.822;7.126;2023-06-26T02:11:14;100637.88;;;20.71;72.73
9141;BME280;46330;50.822;7.126;2023-06-26T02:13:42;100623.91;;;20.68;73.33
9141;BME280;46330;50.822;7.126;2023-06-26T02:16:12;100638.75;;;20.58;73.75
9141;BME280;46330;50.822;7.126;2023-06-26T02:18:41;100639.56;;;20.44;75.53
9141;BME280;46330;50.822;7.126;2023-06-26T02:21:10;100633.13;;;20.48;76.53
9141;BME280;46330;50.822;7.126;2023-06-26T02:23:38;100633.19;;;20.47;75.06
9141;BME280;46330;50.822;7.126;2023-06-26T02:26:06;100632.13;;;20.35;75.22
9141;BME280;46330;50.822;7.126;2023-06-26T02:28:34;100640.31;;;20.16;76.07
9141;BME280;46330;50.822;7.126;2023-06-26T02:31:02;100640.75;;;20.09;77.34
9141;BME280;46330;50.822;7.126;2023-06-26T02:33:33;100652.00;;;19.98;78.69
9141;BME280;46330;50.822;7.126;2023-06-26T02:36:01;100662.03;;;19.93;79.25
9141;BME280;46330;50.822;7.126;2023-06-26T02:38:29;100672.06;;;19.88;79.35
9141;BME280;46330;50.822;7.126;2023-06-26T02:40:58;100657.75;;;19.91;79.99
9141;BME280;46330;50.822;7.126;2023-06-26T02:43:26;100658.69;;;19.90;78.81
9141;BME280;46330;50.822;7.126;2023-06-26T02:45:55;100654.34;;;19.89;79.05
9141;BME280;46330;50.822;7.126;2023-06-26T02:48:23;100663.56;;;19.97;78.85
9141;BME280;46330;50.822;7.126;2023-06-26T02:50:52;100652.88;;;19.99;79.57
9141;BME280;46330;50.822;7.126;2023-06-26T02:53:26;100673.16;;;20.00;79.77
9141;BME280;46330;50.822;7.126;2023-06-26T02:55:54;100665.28;;;19.98;79.19
9141;BME280;46330;50.822;7.126;2023-06-26T02:58:22;100667.16;;;19.96;79.29
9141;BME280;46330;50.822;7.126;2023-06-26T03:00:51;100674.88;;;20.01;78.19
9141;BME280;46330;50.822;7.126;2023-06-26T03:03:20;100674.88;;;20.01;78.92
9141;BME280;46330;50.822;7.126;2023-06-26T03:05:48;100674.19;;;19.97;79.20
9141;BME280;46330;50.822;7.126;2023-06-26T03:08:18;100682.91;;;19.99;78.28
9141;BME280;46330;50.822;7.126;2023-06-26T03:10:46;100690.88;;;19.99;79.63
9141;BME280;46330;50.822;7.126;2023-06-26T03:13:14;100684.63;;;20.00;79.79
9141;BME280;46330;50.822;7.126;2023-06-26T03:15:43;100697.16;;;19.98;78.35
9141;BME280;46330;50.822;7.126;2023-06-26T03:18:11;100693.81;;;19.95;78.25
9141;BME280;46330;50.822;7.126;2023-06-26T03:20:39;100696.38;;;19.80;79.75
9141;BME280;46330;50.822;7.126;2023-06-26T03:23:07;100699.13;;;19.79;78.96
9141;BME280;46330;50.822;7.126;2023-06-26T03:25:37;100705.72;;;19.72;79.00
9141;BME280;46330;50.822;7.126;2023-06-26T03:28:37;100708.13;;;19.76;79.61
9141;BME280;46330;50.822;7.126;2023-06-26T03:31:08;100697.69;;;19.73;79.24
9141;BME280;46330;50.822;7.126;2023-06-26T03:33:37;100704.34;;;19.65;79.90
9141;BME280;46330;50.822;7.126;2023-06-26T03:36:07;100706.00;;;19.67;79.39
9141;BME280;46330;50.822;7.126;2023-06-26T03:38:35;100709.66;;;19.65;80.97
9141;BME280;46330;50.822;7.126;2023-06-26T03:41:05;100709.91;;;19.60;81.18
9141;BME280;46330;50.822;7.126;2023-06-26T03:43:33;100714.19;;;19.63;81.19
9141;BME280;46330;50.822;7.126;2023-06-26T03:46:13;100722.84;;;19.66;81.31
9141;BME280;46330;50.822;7.126;2023-06-26T03:48:41;100720.03;;;19.69;81.69
9141;BME280;46330;50.822;7.126;2023-06-26T03:51:09;100719.75;;;19.74;81.10
9141;BME280;46330;50.822;7.126;2023-06-26T03:53:37;100723.72;;;19.82;80.51
9141;BME280;46330;50.822;7.126;2023-06-26T03:56:07;100722.41;;;19.90;81.06
9141;BME280;46330;50.822;7.126;2023-06-26T03:58:35;100727.28;;;19.97;80.96
9141;BME280;46330;50.822;7.126;2023-06-26T04:01:03;100728.75;;;20.03;79.92
9141;BME280;46330;50.822;7.126;2023-06-26T04:03:31;100728.31;;;20.10;79.73
9141;BME280;46330;50.822;7.126;2023-06-26T04:06:00;100736.97;;;20.14;78.43
9141;BME280;46330;50.822;7.126;2023-06-26T04:08:28;100734.53;;;20.25;79.70
9141;BME280;46330;50.822;7.126;2023-06-26T04:10:56;100738.31;;;20.36;78.60
9141;BME280;46330;50.822;7.126;2023-06-26T04:13:26;100733.16;;;20.49;79.08
9141;BME280;46330;50.822;7.126;2023-06-26T04:15:54;100732.53;;;20.60;77.44
9141;BME280;46330;50.822;7.126;2023-06-26T04:18:22;100735.19;;;20.74;76.80
9141;BME280;46330;50.822;7.126;2023-06-26T04:21:07;100748.44;;;20.89;77.58
9141;BME280;46330;50.822;7.126;2023-06-26T04:23:36;100746.00;;;21.01;77.89
9141;BME280;46330;50.822;7.126;2023-06-26T04:26:04;100752.34;;;21.14;77.87
9141;BME280;46330;50.822;7.126;2023-06-26T04:28:34;100753.38;;;21.25;75.06
9141;BME280;46330;50.822;7.126;2023-06-26T04:31:03;100751.00;;;21.35;73.02
9141;BME280;46330;50.822;7.126;2023-06-26T04:33:31;100752.34;;;21.42;74.04
9141;BME280;46330;50.822;7.126;2023-06-26T04:35:59;100755.66;;;21.45;73.09
9141;BME280;46330;50.822;7.126;2023-06-26T04:38:30;100755.94;;;21.55;72.42
9141;BME280;46330;50.822;7.126;2023-06-26T04:40:58;100757.72;;;21.69;72.60
9141;BME280;46330;50.822;7.126;2023-06-26T04:43:27;100764.47;;;21.74;71.17
9141;BME280;46330;50.822;7.126;2023-06-26T04:45:56;100767.13;;;21.74;71.64
9141;BME280;46330;50.822;7.126;2023-06-26T04:48:24;100768.94;;;21.88;70.50
9141;BME280;46330;50.822;7.126;2023-06-26T04:50:54;100771.84;;;22.12;70.26
9141;BME280;46330;50.822;7.126;2023-06-26T04:53:23;100774.69;;;22.23;68.23
9141;BME280;46330;50.822;7.126;2023-06-26T04:55:51;100773.72;;;22.50;67.54
9141;BME280;46330;50.822;7.126;2023-06-26T04:58:19;100787.88;;;22.51;66.73
9141;BME280;46330;50.822;7.126;2023-06-26T05:00:48;100782.25;;;22.82;65.60
9141;BME280;46330;50.822;7.126;2023-06-26T05:03:18;100789.06;;;22.74;65.83
9141;BME280;46330;50.822;7.126;2023-06-26T05:05:46;100785.19;;;22.38;65.67
9141;BME280;46330;50.822;7.126;2023-06-26T05:08:15;100788.06;;;22.35;65.42
9141;BME280;46330;50.822;7.126;2023-06-26T05:10:44;100794.22;;;22.36;64.88
9141;BME280;46330;50.822;7.126;2023-06-26T05:13:14;100780.75;;;22.51;63.52
9141;BME280;46330;50.822;7.126;2023-06-26T05:15:45;100791.13;;;22.56;63.63
9141;BME280;46330;50.822;7.126;2023-06-26T05:18:13;100791.19;;;22.55;63.94
9141;BME280;46330;50.822;7.126;2023-06-26T05:20:43;100793.56;;;22.59;63.30
9141;BME280;46330;50.822;7.126;2023-06-26T05:23:12;100796.66;;;22.53;63.15
9141;BME280;46330;50.822;7.126;2023-06-26T05:25:40;100787.75;;;22.67;62.28
9141;BME280;46330;50.822;7.126;2023-06-26T05:28:09;100793.31;;;22.76;61.99
9141;BME280;46330;50.822;7.126;2023-06-26T05:30:39;100792.31;;;22.91;61.42
9141;BME280;46330;50.822;7.126;2023-06-26T05:33:10;100795.41;;;23.11;60.26
9141;BME280;46330;50.822;7.126;2023-06-26T05:35:39;100795.22;;;23.39;59.15
9141;BME280;46330;50.822;7.126;2023-06-26T05:38:09;100795.44;;;23.61;58.83
9141;BME280;46330;50.822;7.126;2023-06-26T05:40:37;100793.78;;;23.47;59.21
9141;BME280;46330;50.822;7.126;2023-06-26T05:43:08;100792.97;;;23.33;60.22
9141;BME280;46330;50.822;7.126;2023-06-26T05:45:36;100806.03;;;22.85;61.61
9141;BME280;46330;50.822;7.126;2023-06-26T05:48:04;100806.09;;;23.23;60.79
9141;BME280;46330;50.822;7.126;2023-06-26T05:50:33;100806.34;;;23.45;60.08
9141;BME280;46330;50.822;7.126;2023-06-26T05:53:02;100802.94;;;23.43;59.53
9141;BME280;46330;50.822;7.126;2023-06-26T05:55:32;100803.97;;;23.79;58.75
9141;BME280;46330;50.822;7.126;2023-06-26T05:58:01;100805.53;;;24.19;57.67
9141;BME280;46330;50.822;7.126;2023-06-26T06:00:30;100800.22;;;24.30;57.24
9141;BME280;46330;50.822;7.126;2023-06-26T06:02:58;100804.44;;;24.22;58.17
9141;BME280;46330;50.822;7.126;2023-06-26T06:05:26;100809.50;;;23.88;58.86
9141;BME280;46330;50.822;7.126;2023-06-26T06:07:54;100819.63;;;23.60;59.35
9141;BME280;46330;50.822;7.126;2023-06-26T06:10:22;100818.50;;;23.37;60.63
9141;BME280;46330;50.822;7.126;2023-06-26T06:12:51;100825.88;;;23.33;61.53
9141;BME280;46330;50.822;7.126;2023-06-26T06:15:21;100827.44;;;23.11;61.77
9141;BME280;46330;50.822;7.126;2023-06-26T06:17:48;100831.47;;;23.68;60.26
9141;BME280;46330;50.822;7.126;2023-06-26T06:20:17;100830.69;;;24.64;57.17
9141;BME280;46330;50.822;7.126;2023-06-26T06:22:46;100839.16;;;25.05;55.72
9141;BME280;46330;50.822;7.126;2023-06-26T06:25:15;100842.94;;;25.03;55.02
9141;BME280;46330;50.822;7.126;2023-06-26T06:27:44;100849.88;;;25.51;54.12
9141;BME280;46330;50.822;7.126;2023-06-26T06:30:13;100845.28;;;25.76;52.54
9141;BME280;46330;50.822;7.126;2023-06-26T06:32:41;100844.44;;;25.18;53.88
9141;BME280;46330;50.822;7.126;2023-06-26T06:35:09;100844.22;;;24.14;57.11
9141;BME280;46330;50.822;7.126;2023-06-26T06:37:38;100854.38;;;24.08;57.91
9141;BME280;46330;50.822;7.126;2023-06-26T06:40:08;100861.13;;;24.01;58.59
9141;BME280;46330;50.822;7.126;2023-06-26T06:42:37;100859.09;;;24.05;59.64
9141;BME280;46330;50.822;7.126;2023-06-26T06:45:05;100856.66;;;23.77;61.03
9141;BME280;46330;50.822;7.126;2023-06-26T06:47:35;100867.13;;;23.92;59.49
9141;BME280;46330;50.822;7.126;2023-06-26T06:50:03;100863.59;;;23.67;60.06
9141;BME280;46330;50.822;7.126;2023-06-26T06:52:36;100859.25;;;24.63;57.10
9141;BME280;46330;50.822;7.126;2023-06-26T06:55:06;100874.44;;;24.99;55.44
9141;BME280;46330;50.822;7.126;2023-06-26T06:57:36;100871.78;;;25.10;55.04
9141;BME280;46330;50.822;7.126;2023-06-26T07:00:07;100869.03;;;24.76;57.28
9141;BME280;46330;50.822;7.126;2023-06-26T07:02:38;100873.53;;;24.02;58.22
9141;BME280;46330;50.822;7.126;2023-06-26T07:05:07;100864.69;;;23.51;60.97
9141;BME280;46330;50.822;7.126;2023-06-26T07:07:37;100877.72;;;23.56;60.83
9141;BME280;46330;50.822;7.126;2023-06-26T07:10:08;100875.63;;;24.35;59.49
9141;BME280;46330;50.822;7.126;2023-06-26T07:12:37;100886.88;;;24.88;57.69
9141;BME280;46330;50.822;7.126;2023-06-26T07:15:06;100887.34;;;25.05;56.69
9141;BME280;46330;50.822;7.126;2023-06-26T07:17:35;100901.94;;;24.29;57.77
9141;BME280;46330;50.822;7.126;2023-06-26T07:20:06;100908.66;;;24.47;58.23
9141;BME280;46330;50.822;7.126;2023-06-26T07:22:36;100911.38;;;24.22;58.58
9141;BME280;46330;50.822;7.126;2023-06-26T07:25:04;100908.78;;;24.69;57.42
9141;BME280;46330;50.822;7.126;2023-06-26T07:27:36;100917.19;;;24.88;55.92
9141;BME280;46330;50.822;7.126;2023-06-26T07:30:04;100921.31;;;25.40;55.09
9141;BME280;46330;50.822;7.126;2023-06-26T07:32:32;100930.66;;;25.58;53.56
9141;BME280;46330;50.822;7.126;2023-06-26T07:35:00;100929.69;;;25.81;52.38
9141;BME280;46330;50.822;7.126;2023-06-26T07:37:30;100937.66;;;26.05;52.54
9141;BME280;46330;50.822;7.126;2023-06-26T07:39:58;100932.72;;;26.34;51.05
9141;BME280;46330;50.822;7.126;2023-06-26T07:42:25;100927.78;;;26.61;50.62
9141;BME280;46330;50.822;7.126;2023-06-26T07:44:53;100923.78;;;26.44;50.82
9141;BME280;46330;50.822;7.126;2023-06-26T07:47:21;100927.34;;;26.34;52.30
9141;BME280;46330;50.822;7.126;2023-06-26T07:49:49;100921.19;;;25.98;52.98
9141;BME280;46330;50.822;7.126;2023-06-26T07:52:18;100932.28;;;25.72;54.27
9141;BME280;46330;50.822;7.126;2023-06-26T07:54:48;100932.47;;;26.37;51.98
9141;BME280;46330;50.822;7.126;2023-06-26T07:57:16;100935.75;;;26.29;51.94
9141;BME280;46330;50.822;7.126;2023-06-26T07:59:44;100932.66;;;27.21;49.63
9141;BME280;46330;50.822;7.126;2023-06-26T08:02:12;100927.00;;;27.76;47.61
9141;BME280;46330;50.822;7.126;2023-06-26T08:04:42;100929.53;;;27.78;47.42
9141;BME280;46330;50.822;7.126;2023-06-26T08:07:10;100936.56;;;28.11;46.52
9141;BME280;46330;50.822;7.126;2023-06-26T08:09:38;100939.88;;;28.34;46.32
9141;BME280;46330;50.822;7.126;2023-06-26T08:12:07;100946.97;;;28.35;46.10
9141;BME280;46330;50.822;7.126;2023-06-26T08:14:39;100939.94;;;28.83;44.43
9141;BME280;46330;50.822;7.126;2023-06-26T08:17:07;100944.22;;;29.43;43.73
9141;BME280;46330;50.822;7.126;2023-06-26T08:19:34;100949.91;;;29.59;42.75
9141;BME280;46330;50.822;7.126;2023-06-26T08:22:02;100955.81;;;29.05;43.88
9141;BME280;46330;50.822;7.126;2023-06-26T08:24:30;100952.16;;;29.06;43.58
9141;BME280;46330;50.822;7.126;2023-06-26T08:26:59;100955.53;;;28.79;45.65
9141;BME280;46330;50.822;7.126;2023-06-26T08:29:28;100954.38;;;26.53;48.88
9141;BME280;46330;50.822;7.126;2023-06-26T08:31:56;100954.38;;;26.08;50.43
9141;BME280;46330;50.822;7.126;2023-06-26T08:34:24;100959.91;;;26.40;49.93
9141;BME280;46330;50.822;7.126;2023-06-26T08:36:52;100959.41;;;26.24;50.44
9141;BME280;46330;50.822;7.126;2023-06-26T08:39:20;100957.81;;;26.55;50.50
9141;BME280;46330;50.822;7.126;2023-06-26T08:41:48;100954.97;;;26.01;51.69
9141;BME280;46330;50.822;7.126;2023-06-26T08:44:16;100957.59;;;27.01;49.62
9141;BME280;46330;50.822;7.126;2023-06-26T08:46:46;100969.22;;;26.90;49.46
9141;BME280;46330;50.822;7.126;2023-06-26T08:49:18;100971.06;;;26.79;48.76
9141;BME280;46330;50.822;7.126;2023-06-26T08:51:52;100975.16;;;27.48;47.84
9141;BME280;46330;50.822;7.126;2023-06-26T08:54:23;100972.25;;;26.97;48.48
9141;BME280;46330;50.822;7.126;2023-06-26T08:56:56;100977.91;;;26.71;50.53
9141;BME280;46330;50.822;7.126;2023-06-26T08:59:25;100973.38;;;25.59;52.58
9141;BME280;46330;50.822;7.126;2023-06-26T09:01:54;100971.00;;;25.79;52.15
9141;BME280;46330;50.822;7.126;2023-06-26T09:04:23;100973.50;;;26.93;48.54
9141;BME280;46330;50.822;7.126;2023-06-26T09:06:51;100978.53;;;27.61;47.32
9141;BME280;46330;50.822;7.126;2023-06-26T09:09:19;100980.88;;;27.75;45.72
9141;BME280;46330;50.822;7.126;2023-06-26T09:11:47;100973.75;;;27.64;45.02
9141;BME280;46330;50.822;7.126;2023-06-26T09:14:15;100977.69;;;28.02;44.88
9141;BME280;46330;50.822;7.126;2023-06-26T09:16:43;100974.94;;;28.73;44.28
9141;BME280;46330;50.822;7.126;2023-06-26T09:19:13;100978.06;;;28.88;41.95
9141;BME280;46330;50.822;7.126;2023-06-26T09:21:42;100967.56;;;28.45;42.62
9141;BME280;46330;50.822;7.126;2023-06-26T09:24:10;100973.97;;;28.03;44.68
9141;BME280;46330;50.822;7.126;2023-06-26T09:26:39;100978.50;;;29.03;42.43
9141;BME280;46330;50.822;7.126;2023-06-26T09:29:09;100990.63;;;29.37;41.57
9141;BME280;46330;50.822;7.126;2023-06-26T09:31:37;100981.78;;;28.57;43.27
9141;BME280;46330;50.822;7.126;2023-06-26T09:34:08;100982.16;;;28.73;42.39
9141;BME280;46330;50.822;7.126;2023-06-26T09:36:38;100980.50;;;28.51;43.56
9141;BME280;46330;50.822;7.126;2023-06-26T09:39:09;100982.94;;;26.54;47.20
9141;BME280;46330;50.822;7.126;2023-06-26T09:41:40;100984.84;;;27.71;45.14
9141;BME280;46330;50.822;7.126;2023-06-26T09:44:10;100988.31;;;28.64;43.34
9141;BME280;46330;50.822;7.126;2023-06-26T09:46:39;100996.22;;;28.86;41.15
9141;BME280;46330;50.822;7.126;2023-06-26T09:49:08;100994.06;;;27.99;43.27
9141;BME280;46330;50.822;7.126;2023-06-26T09:51:40;100994.09;;;27.14;44.34
9141;BME280;46330;50.822;7.126;2023-06-26T09:54:09;100997.53;;;27.69;43.82
9141;BME280;46330;50.822;7.126;2023-06-26T09:56:37;100997.69;;;27.67;43.52
9141;BME280;46330;50.822;7.126;2023-06-26T09:59:06;100990.59;;;26.92;45.44
9141;BME280;46330;50.822;7.126;2023-06-26T10:01:40;101011.34;;;26.67;44.82
9141;BME280;46330;50.822;7.126;2023-06-26T10:04:09;101000.63;;;27.21;43.88
9141;BME280;46330;50.822;7.126;2023-06-26T10:06:41;100999.50;;;27.67;44.17
9141;BME280;46330;50.822;7.126;2023-06-26T10:09:14;101001.22;;;26.49;44.51
9141;BME280;46330;50.822;7.126;2023-06-26T10:11:48;101015.44;;;27.16;44.38
9141;BME280;46330;50.822;7.126;2023-06-26T10:14:20;101005.94;;;27.01;45.22
9141;BME280;46330;50.822;7.126;2023-06-26T10:16:49;101005.75;;;26.93;43.44
9141;BME280;46330;50.822;7.126;2023-06-26T10:19:19;101014.31;;;27.18;42.66
9141;BME280;46330;50.822;7.126;2023-06-26T10:21:54;101017.72;;;28.46;40.56
9141;BME280;46330;50.822;7.126;2023-06-26T10:24:23;101014.84;;;28.68;39.52
9141;BME280;46330;50.822;7.126;2023-06-26T10:26:55;101012.59;;;29.23;38.15
9141;BME280;46330;50.822;7.126;2023-06-26T10:29:25;101008.53;;;28.58;39.57
9141;BME280;46330;50.822;7.126;2023-06-26T10:31:56;101024.22;;;28.44;40.01
9141;BME280;46330;50.822;7.126;2023-06-26T10:34:26;101027.75;;;27.18;43.10
9141;BME280;46330;50.822;7.126;2023-06-26T10:37:02;101025.34;;;26.93;44.37
9141;BME280;46330;50.822;7.126;2023-06-26T10:39:46;101028.16;;;27.03;43.38
9141;BME280;46330;50.822;7.126;2023-06-26T10:42:16;101032.94;;;28.57;40.81
9141;BME280;46330;50.822;7.126;2023-06-26T10:44:47;101018.72;;;28.75;39.82
9141;BME280;46330;50.822;7.126;2023-06-26T10:47:29;101027.31;;;29.09;36.23
9141;BME280;46330;50.822;7.126;2023-06-26T10:50:16;101029.66;;;29.52;36.44
9141;BME280;46330;50.822;7.126;2023-06-26T10:53:09;101036.91;;;29.42;36.17
9141;BME280;46330;50.822;7.126;2023-06-26T10:55:41;101040.88;;;29.86;35.52
9141;BME280;46330;50.822;7.126;2023-06-26T10:58:32;101033.34;;;29.42;35.80
9141;BME280;46330;50.822;7.126;2023-06-26T11:01:20;101044.63;;;29.16;33.56
9141;BME280;46330;50.822;7.126;2023-06-26T11:04:03;101039.19;;;29.66;33.86
9141;BME280;46330;50.822;7.126;2023-06-26T11:06:31;101037.75;;;29.71;34.76
9141;BME280;46330;50.822;7.126;2023-06-26T11:09:07;101028.09;;;29.30;35.11
9141;BME280;46330;50.822;7.126;2023-06-26T11:11:55;101047.25;;;28.57;36.61
9141;BME280;46330;50.822;7.126;2023-06-26T11:14:26;101034.91;;;27.51;38.49
9141;BME280;46330;50.822;7.126;2023-06-26T11:16:55;101032.22;;;28.55;36.54
9141;BME280;46330;50.822;7.126;2023-06-26T11:19:26;101039.16;;;29.56;33.96
9141;BME280;46330;50.822;7.126;2023-06-26T11:21:59;101050.09;;;28.96;35.34
9141;BME280;46330;50.822;7.126;2023-06-26T11:24:29;101051.88;;;28.04;36.31
9141;BME280;46330;50.822;7.126;2023-06-26T11:27:05;101048.72;;;29.01;35.72
9141;BME280;46330;50.822;7.126;2023-06-26T11:29:33;101047.03;;;27.98;36.80
9141;BME280;46330;50.822;7.126;2023-06-26T11:32:03;101053.50;;;28.37;35.74
9141;BME280;46330;50.822;7.126;2023-06-26T11:34:33;101042.50;;;28.19;37.13
9141;BME280;46330;50.822;7.126;2023-06-26T11:37:01;101045.91;;;28.01;37.58
9141;BME280;46330;50.822;7.126;2023-06-26T11:39:31;101050.91;;;27.42;39.17
9141;BME280;46330;50.822;7.126;2023-06-26T11:41:59;101060.50;;;28.70;36.93
9141;BME280;46330;50.822;7.126;2023-06-26T11:44:32;101056.69;;;28.72;36.45
9141;BME280;46330;50.822;7.126;2023-06-26T11:47:00;101056.84;;;27.67;38.74
9141;BME280;46330;50.822;7.126;2023-06-26T11:49:29;101054.63;;;27.18;39.19
9141;BME280;46330;50.822;7.126;2023-06-26T11:51:56;101055.53;;;26.86;40.08
9141;BME280;46330;50.822;7.126;2023-06-26T11:54:25;101057.53;;;27.27;39.71
9141;BME280;46330;50.822;7.126;2023-06-26T11:56:56;101054.28;;;26.79;39.60
9141;BME280;46330;50.822;7.126;2023-06-26T11:59:33;101066.13;;;26.65;40.18
9141;BME280;46330;50.822;7.126;2023-06-26T12:02:05;101066.25;;;26.63;39.80
9141;BME280;46330;50.822;7.126;2023-06-26T12:04:36;101056.94;;;26.34;40.14
9141;BME280;46330;50.822;7.126;2023-06-26T12:07:06;101062.72;;;26.52;39.12
9141;BME280;46330;50.822;7.126;2023-06-26T12:09:40;101073.03;;;26.23;39.88
9141;BME280;46330;50.822;7.126;2023-06-26T12:12:13;101075.38;;;26.50;39.44
9141;BME280;46330;50.822;7.126;2023-06-26T12:14:42;101060.19;;;27.38;37.59
9141;BME280;46330;50.822;7.126;2023-06-26T12:17:11;101068.25;;;27.38;35.83
9141;BME280;46330;50.822;7.126;2023-06-26T12:19:45;101064.38;;;27.94;34.75
9141;BME280;46330;50.822;7.126;2023-06-26T12:22:14;101076.44;;;28.32;34.05
9141;BME280;46330;50.822;7.126;2023-06-26T12:24:43;101073.72;;;28.73;33.64
9141;BME280;46330;50.822;7.126;2023-06-26T12:27:14;101075.66;;;28.71;34.34
9141;BME280;46330;50.822;7.126;2023-06-26T12:29:49;101076.00;;;27.95;34.65
9141;BME280;46330;50.822;7.126;2023-06-26T12:32:17;101075.47;;;27.80;37.03
9141;BME280;46330;50.822;7.126;2023-06-26T12:34:48;101078.03;;;28.64;35.38
9141;BME280;46330;50.822;7.126;2023-06-26T12:37:17;101078.91;;;28.44;35.58
9141;BME280;46330;50.822;7.126;2023-06-26T12:39:47;101079.91;;;27.27;37.22
9141;BME280;46330;50.822;7.126;2023-06-26T12:42:18;101081.94;;;28.09;35.78
9141;BME280;46330;50.822;7.126;2023-06-26T12:44:47;101074.19;;;26.76;36.56
9141;BME280;46330;50.822;7.126;2023-06-26T12:47:16;101088.44;;;27.75;35.26
9141;BME280;46330;50.822;7.126;2023-06-26T12:49:49;101102.75;;;28.28;32.27
9141;BME280;46330;50.822;7.126;2023-06-26T12:52:17;101098.69;;;28.85;31.40
9141;BME280;46330;50.822;7.126;2023-06-26T12:54:51;101096.91;;;28.44;32.59
9141;BME280;46330;50.822;7.126;2023-06-26T12:57:20;101085.19;;;27.60;32.98
9141;BME280;46330;50.822;7.126;2023-06-26T12:59:49;101112.00;;;27.83;33.91
9141;BME280;46330;50.822;7.126;2023-06-26T13:02:18;101102.28;;;27.05;34.47
9141;BME280;46330;50.822;7.126;2023-06-26T13:04:46;101105.66;;;26.63;35.43
9141;BME280;46330;50.822;7.126;2023-06-26T13:07:14;101096.28;;;27.24;35.33
9141;BME280;46330;50.822;7.126;2023-06-26T13:09:43;101091.88;;;27.12;35.22
9141;BME280;46330;50.822;7.126;2023-06-26T13:12:12;101097.44;;;27.31;35.90
9141;BME280;46330;50.822;7.126;2023-06-26T13:14:41;101089.81;;;26.82;36.89